sensor_id;sensor_type;location;lat;lon;timestamp;pressure;altitude;pressure_sealevel;temperature;humidity
42727;BME280;28372;56.832;60.658;2023-04-05T00:00:46;98131.56;;;7.11;46.13
42727;BME280;28372;56.832;60.658;2023-04-05T00:03:14;98133.56;;;7.14;46.06
42727;BME280;28372;56.832;60.658;2023-04-05T00:05:45;98131.09;;;7.09;46.62
42727;BME280;28372;56.832;60.658;2023-04-05T00:08:16;98119.69;;;7.00;46.60
42727;BME280;28372;56.832;60.658;2023-04-05T00:10:50;98126.28;;;7.02;46.36
42727;BME280;28372;56.832;60.658;2023-04-05T00:13:17;98125.06;;;7.00;46.65
42727;BME280;28372;56.832;60.658;2023-04-05T00:15:46;98127.78;;;6.88;47.08
42727;BME280;28372;56.832;60.658;2023-04-05T00:18:14;98123.41;;;6.83;47.32
42727;BME280;28372;56.832;60.658;2023-04-05T00:20:51;98112.00;;;6.74;47.83
42727;BME280;28372;56.832;60.658;2023-04-05T00:23:19;98119.50;;;6.68;48.03
42727;BME280;28372;56.832;60.658;2023-04-05T00:25:51;98112.69;;;6.58;48.38
42727;BME280;28372;56.832;60.658;2023-04-05T00:28:19;98111.78;;;6.54;48.72
42727;BME280;28372;56.832;60.658;2023-04-05T00:30:47;98115.38;;;6.46;48.83
42727;BME280;28372;56.832;60.658;2023-04-05T00:33:14;98115.25;;;6.42;48.89
42727;BME280;28372;56.832;60.658;2023-04-05T00:35:42;98110.19;;;6.41;49.04
42727;BME280;28372;56.832;60.658;2023-04-05T00:38:09;98112.66;;;6.33;49.53
42727;BME280;28372;56.832;60.658;2023-04-05T00:40:37;98113.47;;;6.34;49.40
42727;BME280;28372;56.832;60.658;2023-04-05T00:43:05;98110.53;;;6.27;49.86
42727;BME280;28372;56.832;60.658;2023-04-05T00:45:33;98108.31;;;6.29;49.74
42727;BME280;28372;56.832;60.658;2023-04-05T00:48:00;98112.00;;;6.24;50.16
42727;BME280;28372;56.832;60.658;2023-04-05T00:50:28;98103.94;;;6.24;50.06
42727;BME280;28372;56.832;60.658;2023-04-05T00:52:59;98096.44;;;6.17;50.22
42727;BME280;28372;56.832;60.658;2023-04-05T00:55:27;98085.91;;;6.12;50.25
42727;BME280;28372;56.832;60.658;2023-04-05T00:57:55;98098.56;;;6.12;50.85
42727;BME280;28372;56.832;60.658;2023-04-05T01:00:23;98090.28;;;6.05;50.75
42727;BME280;28372;56.832;60.658;2023-04-05T01:02:56;98087.81;;;6.12;50.87
42727;BME280;28372;56.832;60.658;2023-04-05T01:05:40;98090.72;;;6.19;50.66
42727;BME280;28372;56.832;60.658;2023-04-05T01:11:02;98096.53;;;6.09;50.94
42727;BME280;28372;56.832;60.658;2023-04-05T01:13:32;98087.59;;;6.05;50.43
42727;BME280;28372;56.832;60.658;2023-04-05T01:15:59;98089.53;;;5.95;51.28
42727;BME280;28372;56.832;60.658;2023-04-05T01:18:27;98090.00;;;5.97;50.86
42727;BME280;28372;56.832;60.658;2023-04-05T01:30:06;98086.63;;;5.88;51.84
42727;BME280;28372;56.832;60.658;2023-04-05T01:35:45;98082.38;;;5.87;51.80
42727;BME280;28372;56.832;60.658;2023-04-05T01:38:18;98079.56;;;5.71;52.35
42727;BME280;28372;56.832;60.658;2023-04-05T01:40:47;98078.41;;;5.72;51.85
42727;BME280;28372;56.832;60.658;2023-04-05T01:43:16;98069.38;;;5.77;51.76
42727;BME280;28372;56.832;60.658;2023-04-05T01:45:45;98076.00;;;5.79;51.73
42727;BME280;28372;56.832;60.658;2023-04-05T01:48:13;98064.50;;;5.58;52.39
42727;BME280;28372;56.832;60.658;2023-04-05T01:50:44;98066.75;;;5.56;52.58
42727;BME280;28372;56.832;60.658;2023-04-05T01:53:17;98063.16;;;5.52;52.94
42727;BME280;28372;56.832;60.658;2023-04-05T01:55:45;98066.81;;;5.47;52.98
42727;BME280;28372;56.832;60.658;2023-04-05T01:58:12;98057.66;;;5.48;53.39
42727;BME280;28372;56.832;60.658;2023-04-05T02:00:40;98062.50;;;5.55;53.37
42727;BME280;28372;56.832;60.658;2023-04-05T02:03:08;98056.59;;;5.61;53.08
42727;BME280;28372;56.832;60.658;2023-04-05T02:05:36;98060.84;;;5.62;53.32
42727;BME280;28372;56.832;60.658;2023-04-05T02:08:03;98052.16;;;5.65;53.32
42727;BME280;28372;56.832;60.658;2023-04-05T02:10:31;98059.06;;;5.66;53.27
42727;BME280;28372;56.832;60.658;2023-04-05T02:12:59;98052.91;;;5.66;53.55
42727;BME280;28372;56.832;60.658;2023-04-05T02:15:29;98043.22;;;5.74;53.28
42727;BME280;28372;56.832;60.658;2023-04-05T02:17:56;98045.56;;;5.88;53.41
42727;BME280;28372;56.832;60.658;2023-04-05T02:20:28;98048.66;;;6.36;53.04
42727;BME280;28372;56.832;60.658;2023-04-05T02:22:56;98042.41;;;7.25;51.39
42727;BME280;28372;56.832;60.658;2023-04-05T02:25:24;98042.31;;;8.14;48.21
42727;BME280;28372;56.832;60.658;2023-04-05T02:27:52;98039.88;;;8.76;46.26
42727;BME280;28372;56.832;60.658;2023-04-05T02:30:20;98033.91;;;9.45;44.54
42727;BME280;28372;56.832;60.658;2023-04-05T02:32:47;98032.09;;;10.22;43.40
42727;BME280;28372;56.832;60.658;2023-04-05T02:35:15;98033.59;;;11.00;41.45
42727;BME280;28372;56.832;60.658;2023-04-05T02:37:43;98040.53;;;11.69;40.12
42727;BME280;28372;56.832;60.658;2023-04-05T02:40:12;98035.66;;;12.34;38.10
42727;BME280;28372;56.832;60.658;2023-04-05T02:42:41;98044.97;;;12.99;36.98
42727;BME280;28372;56.832;60.658;2023-04-05T02:45:09;98029.28;;;13.63;36.33
42727;BME280;28372;56.832;60.658;2023-04-05T02:47:37;98030.84;;;14.11;34.93
42727;BME280;28372;56.832;60.658;2023-04-05T02:50:05;98031.22;;;14.56;34.04
42727;BME280;28372;56.832;60.658;2023-04-05T02:52:39;98021.28;;;15.20;33.06
42727;BME280;28372;56.832;60.658;2023-04-05T02:55:08;98018.69;;;15.69;32.55
42727;BME280;28372;56.832;60.658;2023-04-05T02:57:36;98019.53;;;16.15;31.43
42727;BME280;28372;56.832;60.658;2023-04-05T03:00:19;98012.47;;;16.63;30.74
42727;BME280;28372;56.832;60.658;2023-04-05T03:02:47;98017.91;;;17.32;29.93
42727;BME280;28372;56.832;60.658;2023-04-05T03:05:16;98016.31;;;17.89;28.75
42727;BME280;28372;56.832;60.658;2023-04-05T03:07:48;98016.63;;;18.42;28.05
42727;BME280;28372;56.832;60.658;2023-04-05T03:10:22;98006.69;;;18.72;27.33
42727;BME280;28372;56.832;60.658;2023-04-05T03:12:56;98000.75;;;18.97;27.12
42727;BME280;28372;56.832;60.658;2023-04-05T03:15:27;98003.59;;;19.46;26.69
42727;BME280;28372;56.832;60.658;2023-04-05T03:17:56;98006.09;;;19.94;25.94
42727;BME280;28372;56.832;60.658;2023-04-05T03:20:24;97994.53;;;20.32;25.35
42727;BME280;28372;56.832;60.658;2023-04-05T03:22:56;98007.06;;;20.79;24.87
42727;BME280;28372;56.832;60.658;2023-04-05T03:25:28;97998.81;;;21.21;24.15
42727;BME280;28372;56.832;60.658;2023-04-05T03:27:56;98003.81;;;21.65;23.81
42727;BME280;28372;56.832;60.658;2023-04-05T03:30:28;98003.19;;;22.08;23.17
42727;BME280;28372;56.832;60.658;2023-04-05T03:33:04;98002.41;;;22.56;22.55
42727;BME280;28372;56.832;60.658;2023-04-05T03:35:44;97996.50;;;22.89;22.65
42727;BME280;28372;56.832;60.658;2023-04-05T03:38:13;97990.78;;;23.27;21.89
42727;BME280;28372;56.832;60.658;2023-04-05T03:40:53;97992.66;;;23.71;21.17
42727;BME280;28372;56.832;60.658;2023-04-05T03:43:20;97984.31;;;24.12;21.51
42727;BME280;28372;56.832;60.658;2023-04-05T03:45:48;97989.09;;;24.49;20.84
42727;BME280;28372;56.832;60.658;2023-04-05T03:48:16;97984.94;;;24.90;20.34
42727;BME280;28372;56.832;60.658;2023-04-05T03:50:48;97985.25;;;25.44;19.74
42727;BME280;28372;56.832;60.658;2023-04-05T03:53:15;97985.25;;;25.78;19.29
42727;BME280;28372;56.832;60.658;2023-04-05T03:55:47;97995.47;;;25.96;19.20
42727;BME280;28372;56.832;60.658;2023-04-05T03:58:20;97984.75;;;26.13;19.27
42727;BME280;28372;56.832;60.658;2023-04-05T04:00:48;97985.19;;;26.36;18.88
42727;BME280;28372;56.832;60.658;2023-04-05T04:03:19;97982.78;;;26.67;18.80
42727;BME280;28372;56.832;60.658;2023-04-05T04:05:51;97986.75;;;26.91;18.43
42727;BME280;28372;56.832;60.658;2023-04-05T04:08:19;97974.41;;;27.22;18.09
42727;BME280;28372;56.832;60.658;2023-04-05T04:10:48;97986.94;;;27.47;18.00
42727;BME280;28372;56.832;60.658;2023-04-05T04:13:36;97983.06;;;27.95;17.80
42727;BME280;28372;56.832;60.658;2023-04-05T04:16:24;97976.19;;;28.31;17.72
42727;BME280;28372;56.832;60.658;2023-04-05T04:19:13;97981.50;;;28.76;17.12
42727;BME280;28372;56.832;60.658;2023-04-05T04:22:03;97978.75;;;29.08;17.11
42727;BME280;28372;56.832;60.658;2023-04-05T04:24:48;97967.38;;;29.44;16.63
42727;BME280;28372;56.832;60.658;2023-04-05T04:27:29;97968.06;;;29.70;16.36
42727;BME280;28372;56.832;60.658;2023-04-05T04:30:21;97971.56;;;30.08;15.83
42727;BME280;28372;56.832;60.658;2023-04-05T04:33:08;97963.59;;;30.45;15.91
42727;BME280;28372;56.832;60.658;2023-04-05T04:36:07;97957.56;;;30.86;15.32
42727;BME280;28372;56.832;60.658;2023-04-05T04:38:57;97941.09;;;31.27;14.97
42727;BME280;28372;56.832;60.658;2023-04-05T04:41:48;97944.34;;;31.54;14.69
42727;BME280;28372;56.832;60.658;2023-04-05T04:44:27;97941.81;;;31.62;14.89
42727;BME280;28372;56.832;60.658;2023-04-05T04:47:20;97934.44;;;31.65;14.62
42727;BME280;28372;56.832;60.658;2023-04-05T04:50:06;97945.09;;;31.77;14.57
42727;BME280;28372;56.832;60.658;2023-04-05T04:52:33;97933.91;;;31.77;14.71
42727;BME280;28372;56.832;60.658;2023-04-05T04:55:01;97941.81;;;31.56;14.42
42727;BME280;28372;56.832;60.658;2023-04-05T04:57:29;97927.84;;;31.62;14.69
42727;BME280;28372;56.832;60.658;2023-04-05T04:59:56;97921.41;;;31.78;14.63
42727;BME280;28372;56.832;60.658;2023-04-05T05:02:25;97926.91;;;32.07;13.83
42727;BME280;28372;56.832;60.658;2023-04-05T05:04:56;97924.53;;;32.28;14.05
42727;BME280;28372;56.832;60.658;2023-04-05T05:07:24;97921.41;;;32.37;14.38
42727;BME280;28372;56.832;60.658;2023-04-05T05:09:52;97920.94;;;32.33;14.30
42727;BME280;28372;56.832;60.658;2023-04-05T05:12:22;97926.66;;;32.58;13.91
42727;BME280;28372;56.832;60.658;2023-04-05T05:14:49;97915.97;;;32.56;13.70
42727;BME280;28372;56.832;60.658;2023-04-05T05:17:19;97918.47;;;32.60;13.42
42727;BME280;28372;56.832;60.658;2023-04-05T05:19:46;97916.88;;;32.76;13.67
42727;BME280;28372;56.832;60.658;2023-04-05T05:22:14;97909.03;;;32.99;13.41
42727;BME280;28372;56.832;60.658;2023-04-05T05:24:43;97917.81;;;33.14;13.19
42727;BME280;28372;56.832;60.658;2023-04-05T05:27:11;97905.06;;;33.44;12.76
42727;BME280;28372;56.832;60.658;2023-04-05T05:29:39;97899.19;;;33.67;12.94
42727;BME280;28372;56.832;60.658;2023-04-05T05:32:07;97907.53;;;33.78;12.87
42727;BME280;28372;56.832;60.658;2023-04-05T05:34:36;97897.91;;;34.11;12.33
42727;BME280;28372;56.832;60.658;2023-04-05T05:37:03;97898.88;;;34.14;12.43
42727;BME280;28372;56.832;60.658;2023-04-05T05:39:32;97898.81;;;34.39;12.45
42727;BME280;28372;56.832;60.658;2023-04-05T05:41:59;97891.97;;;34.86;12.07
42727;BME280;28372;56.832;60.658;2023-04-05T05:44:27;97899.81;;;35.06;12.11
42727;BME280;28372;56.832;60.658;2023-04-05T05:46:55;97897.34;;;35.29;11.92
42727;BME280;28372;56.832;60.658;2023-04-05T05:49:23;97890.03;;;35.53;11.09
42727;BME280;28372;56.832;60.658;2023-04-05T05:51:51;97885.59;;;35.44;11.44
42727;BME280;28372;56.832;60.658;2023-04-05T05:54:24;97893.06;;;35.42;11.23
42727;BME280;28372;56.832;60.658;2023-04-05T05:56:51;97878.53;;;35.78;10.76
42727;BME280;28372;56.832;60.658;2023-04-05T05:59:19;97871.59;;;36.06;10.55
42727;BME280;28372;56.832;60.658;2023-04-05T06:01:47;97866.75;;;35.93;10.59
42727;BME280;28372;56.832;60.658;2023-04-05T06:04:14;97872.06;;;35.70;10.25
42727;BME280;28372;56.832;60.658;2023-04-05T06:06:43;97867.97;;;35.30;10.63
42727;BME280;28372;56.832;60.658;2023-04-05T06:09:14;97866.72;;;34.99;10.63
42727;BME280;28372;56.832;60.658;2023-04-05T06:11:42;97859.22;;;35.34;10.69
42727;BME280;28372;56.832;60.658;2023-04-05T06:14:22;97851.00;;;35.49;10.13
42727;BME280;28372;56.832;60.658;2023-04-05T06:16:50;97846.66;;;35.62;9.95
42727;BME280;28372;56.832;60.658;2023-04-05T06:19:18;97841.53;;;35.87;10.51
42727;BME280;28372;56.832;60.658;2023-04-05T06:21:45;97837.84;;;35.92;9.21
42727;BME280;28372;56.832;60.658;2023-04-05T06:24:13;97851.38;;;35.13;8.81
42727;BME280;28372;56.832;60.658;2023-04-05T06:26:40;97842.00;;;34.13;9.41
42727;BME280;28372;56.832;60.658;2023-04-05T06:29:08;97840.22;;;33.72;9.52
42727;BME280;28372;56.832;60.658;2023-04-05T06:31:36;97848.00;;;33.17;9.75
42727;BME280;28372;56.832;60.658;2023-04-05T06:34:04;97830.88;;;32.65;9.98
42727;BME280;28372;56.832;60.658;2023-04-05T06:36:32;97821.50;;;32.93;10.39
42727;BME280;28372;56.832;60.658;2023-04-05T06:39:00;97827.84;;;33.18;9.97
42727;BME280;28372;56.832;60.658;2023-04-05T06:41:28;97827.44;;;33.08;9.65
42727;BME280;28372;56.832;60.658;2023-04-05T06:43:55;97822.06;;;33.10;9.99
42727;BME280;28372;56.832;60.658;2023-04-05T06:46:23;97817.16;;;33.17;9.82
42727;BME280;28372;56.832;60.658;2023-04-05T06:48:51;97830.06;;;33.01;9.88
42727;BME280;28372;56.832;60.658;2023-04-05T06:51:19;97821.78;;;33.14;9.68
42727;BME280;28372;56.832;60.658;2023-04-05T06:53:47;97835.44;;;32.99;8.93
42727;BME280;28372;56.832;60.658;2023-04-05T06:56:14;97832.50;;;32.85;8.76
42727;BME280;28372;56.832;60.658;2023-04-05T06:58:42;97828.53;;;32.75;9.15
42727;BME280;28372;56.832;60.658;2023-04-05T07:01:10;97814.63;;;32.94;9.09
42727;BME280;28372;56.832;60.658;2023-04-05T07:03:38;97816.34;;;33.22;8.91
42727;BME280;28372;56.832;60.658;2023-04-05T07:06:06;97809.94;;;33.27;8.77
42727;BME280;28372;56.832;60.658;2023-04-05T07:08:35;97806.19;;;33.19;8.56
42727;BME280;28372;56.832;60.658;2023-04-05T07:11:03;97811.16;;;32.82;8.90
42727;BME280;28372;56.832;60.658;2023-04-05T07:13:31;97794.00;;;32.91;8.94
42727;BME280;28372;56.832;60.658;2023-04-05T07:15:59;97797.31;;;32.59;8.44
42727;BME280;28372;56.832;60.658;2023-04-05T07:18:28;97804.34;;;32.00;8.72
42727;BME280;28372;56.832;60.658;2023-04-05T07:20:57;97797.94;;;31.57;9.13
42727;BME280;28372;56.832;60.658;2023-04-05T07:23:30;97793.13;;;30.77;9.49
42727;BME280;28372;56.832;60.658;2023-04-05T07:26:01;97781.94;;;30.71;9.24
42727;BME280;28372;56.832;60.658;2023-04-05T07:28:34;97774.09;;;30.47;9.66
42727;BME280;28372;56.832;60.658;2023-04-05T07:31:06;97779.63;;;30.13;9.63
42727;BME280;28372;56.832;60.658;2023-04-05T07:33:33;97774.50;;;29.83;9.51
42727;BME280;28372;56.832;60.658;2023-04-05T07:36:01;97758.63;;;29.34;9.79
42727;BME280;28372;56.832;60.658;2023-04-05T07:38:29;97753.16;;;28.97;9.71
42727;BME280;28372;56.832;60.658;2023-04-05T07:40:57;97759.63;;;28.82;10.00
42727;BME280;28372;56.832;60.658;2023-04-05T07:43:24;97755.25;;;28.06;10.07
42727;BME280;28372;56.832;60.658;2023-04-05T07:46:00;97757.00;;;27.83;10.06
42727;BME280;28372;56.832;60.658;2023-04-05T07:48:28;97750.72;;;27.35;10.29
42727;BME280;28372;56.832;60.658;2023-04-05T07:50:56;97749.81;;;26.88;11.03
42727;BME280;28372;56.832;60.658;2023-04-05T07:53:23;97734.31;;;26.46;11.21
42727;BME280;28372;56.832;60.658;2023-04-05T07:55:51;97724.22;;;25.98;11.12
42727;BME280;28372;56.832;60.658;2023-04-05T07:58:19;97725.84;;;26.05;10.90
42727;BME280;28372;56.832;60.658;2023-04-05T08:00:48;97733.44;;;25.65;11.16
42727;BME280;28372;56.832;60.658;2023-04-05T08:03:16;97733.94;;;25.15;11.40
42727;BME280;28372;56.832;60.658;2023-04-05T08:05:44;97729.44;;;25.03;11.33
42727;BME280;28372;56.832;60.658;2023-04-05T08:08:11;97719.16;;;24.94;11.39
42727;BME280;28372;56.832;60.658;2023-04-05T08:10:39;97707.31;;;24.36;11.15
42727;BME280;28372;56.832;60.658;2023-04-05T08:13:07;97719.66;;;24.59;11.04
42727;BME280;28372;56.832;60.658;2023-04-05T08:15:35;97713.72;;;24.42;11.10
42727;BME280;28372;56.832;60.658;2023-04-05T08:18:02;97718.78;;;24.10;10.98
42727;BME280;28372;56.832;60.658;2023-04-05T08:20:30;97710.84;;;23.93;11.01
42727;BME280;28372;56.832;60.658;2023-04-05T08:22:58;97704.53;;;23.84;10.66
42727;BME280;28372;56.832;60.658;2023-04-05T08:25:25;97707.44;;;23.80;10.74
42727;BME280;28372;56.832;60.658;2023-04-05T08:27:53;97694.44;;;23.62;10.61
42727;BME280;28372;56.832;60.658;2023-04-05T08:30:20;97698.91;;;23.50;10.93
42727;BME280;28372;56.832;60.658;2023-04-05T08:32:49;97682.78;;;23.76;10.83
42727;BME280;28372;56.832;60.658;2023-04-05T08:35:17;97685.88;;;24.21;10.35
42727;BME280;28372;56.832;60.658;2023-04-05T08:37:44;97680.66;;;24.23;10.11
42727;BME280;28372;56.832;60.658;2023-04-05T08:40:13;97681.97;;;24.37;10.48
42727;BME280;28372;56.832;60.658;2023-04-05T08:42:45;97684.69;;;24.13;10.17
42727;BME280;28372;56.832;60.658;2023-04-05T08:45:13;97683.84;;;23.70;10.02
42727;BME280;28372;56.832;60.658;2023-04-05T08:47:45;97675.84;;;22.70;10.53
42727;BME280;28372;56.832;60.658;2023-04-05T08:50:15;97660.16;;;22.39;10.47
42727;BME280;28372;56.832;60.658;2023-04-05T08:52:45;97666.34;;;22.30;10.30
42727;BME280;28372;56.832;60.658;2023-04-05T08:55:16;97664.56;;;22.05;10.04
42727;BME280;28372;56.832;60.658;2023-04-05T08:57:49;97661.41;;;22.47;10.48
42727;BME280;28372;56.832;60.658;2023-04-05T09:00:20;97652.59;;;21.99;10.43
42727;BME280;28372;56.832;60.658;2023-04-05T09:02:51;97657.28;;;21.89;10.68
42727;BME280;28372;56.832;60.658;2023-04-05T09:05:22;97649.16;;;22.17;10.61
42727;BME280;28372;56.832;60.658;2023-04-05T09:07:50;97644.41;;;22.49;10.41
42727;BME280;28372;56.832;60.658;2023-04-05T09:10:20;97650.59;;;21.90;10.14
42727;BME280;28372;56.832;60.658;2023-04-05T09:12:47;97640.06;;;21.66;10.62
42727;BME280;28372;56.832;60.658;2023-04-05T09:15:19;97636.72;;;21.49;10.37
42727;BME280;28372;56.832;60.658;2023-04-05T09:17:51;97641.63;;;21.10;10.61
42727;BME280;28372;56.832;60.658;2023-04-05T09:20:19;97631.78;;;21.00;10.45
42727;BME280;28372;56.832;60.658;2023-04-05T09:22:47;97626.69;;;20.98;11.17
42727;BME280;28372;56.832;60.658;2023-04-05T09:25:34;97635.56;;;21.37;10.51
42727;BME280;28372;56.832;60.658;2023-04-05T09:28:02;97629.78;;;21.00;11.39
42727;BME280;28372;56.832;60.658;2023-04-05T09:30:31;97645.44;;;20.91;11.36
42727;BME280;28372;56.832;60.658;2023-04-05T09:33:00;97620.66;;;20.68;11.84
42727;BME280;28372;56.832;60.658;2023-04-05T09:35:32;97621.19;;;20.76;11.88
42727;BME280;28372;56.832;60.658;2023-04-05T09:38:01;97611.16;;;20.82;11.65
42727;BME280;28372;56.832;60.658;2023-04-05T09:40:40;97609.09;;;20.74;12.04
42727;BME280;28372;56.832;60.658;2023-04-05T09:43:11;97607.59;;;20.47;12.25
42727;BME280;28372;56.832;60.658;2023-04-05T09:45:40;97604.19;;;20.43;12.84
42727;BME280;28372;56.832;60.658;2023-04-05T09:48:08;97600.81;;;20.39;12.78
42727;BME280;28372;56.832;60.658;2023-04-05T09:50:36;97600.41;;;20.62;12.57
42727;BME280;28372;56.832;60.658;2023-04-05T09:53:10;97593.41;;;20.96;12.19
42727;BME280;28372;56.832;60.658;2023-04-05T09:55:44;97586.31;;;20.73;12.38
42727;BME280;28372;56.832;60.658;2023-04-05T09:58:12;97577.38;;;20.47;13.00
42727;BME280;28372;56.832;60.658;2023-04-05T10:00:49;97585.25;;;20.58;12.79
42727;BME280;28372;56.832;60.658;2023-04-05T10:03:29;97562.97;;;20.56;12.83
42727;BME280;28372;56.832;60.658;2023-04-05T10:05:57;97568.34;;;20.59;13.02
42727;BME280;28372;56.832;60.658;2023-04-05T10:08:24;97561.41;;;20.67;12.94
42727;BME280;28372;56.832;60.658;2023-04-05T10:10:53;97570.84;;;20.66;13.13
42727;BME280;28372;56.832;60.658;2023-04-05T10:13:22;97554.81;;;20.65;13.10
42727;BME280;28372;56.832;60.658;2023-04-05T10:15:52;97553.25;;;20.64;13.71
42727;BME280;28372;56.832;60.658;2023-04-05T10:18:23;97546.22;;;20.63;13.52
42727;BME280;28372;56.832;60.658;2023-04-05T10:20:57;97532.59;;;20.94;13.09
42727;BME280;28372;56.832;60.658;2023-04-05T10:23:30;97553.31;;;20.86;13.44
42727;BME280;28372;56.832;60.658;2023-04-05T10:26:15;97547.09;;;20.73;11.45
42727;BME280;28372;56.832;60.658;2023-04-05T10:28:58;97537.06;;;20.44;11.36
42727;BME280;28372;56.832;60.658;2023-04-05T10:34:11;97525.69;;;20.54;11.78
42727;BME280;28372;56.832;60.658;2023-04-05T10:36:49;97537.44;;;20.68;12.12
42727;BME280;28372;56.832;60.658;2023-04-05T10:39:33;97537.56;;;21.31;12.97
42727;BME280;28372;56.832;60.658;2023-04-05T10:42:19;97531.88;;;21.25;11.20
42727;BME280;28372;56.832;60.658;2023-04-05T10:44:51;97520.56;;;21.23;11.24
42727;BME280;28372;56.832;60.658;2023-04-05T10:47:27;97524.06;;;21.23;10.92
42727;BME280;28372;56.832;60.658;2023-04-05T10:49:55;97519.53;;;21.30;10.76
42727;BME280;28372;56.832;60.658;2023-04-05T10:52:25;97524.22;;;21.20;10.30
42727;BME280;28372;56.832;60.658;2023-04-05T10:54:54;97519.25;;;20.83;10.67
42727;BME280;28372;56.832;60.658;2023-04-05T10:57:24;97512.53;;;20.84;10.49
42727;BME280;28372;56.832;60.658;2023-04-05T10:59:52;97516.81;;;20.85;10.19
42727;BME280;28372;56.832;60.658;2023-04-05T11:02:21;97507.91;;;20.46;10.28
42727;BME280;28372;56.832;60.658;2023-04-05T11:04:55;97505.94;;;20.82;10.94
42727;BME280;28372;56.832;60.658;2023-04-05T11:07:23;97497.72;;;20.82;10.99
42727;BME280;28372;56.832;60.658;2023-04-05T11:10:01;97505.41;;;21.18;11.26
42727;BME280;28372;56.832;60.658;2023-04-05T11:18:10;97487.78;;;21.38;11.18
42727;BME280;28372;56.832;60.658;2023-04-05T11:20:48;97493.91;;;21.42;10.84
42727;BME280;28372;56.832;60.658;2023-04-05T11:23:22;97491.13;;;21.01;10.04
42727;BME280;28372;56.832;60.658;2023-04-05T11:25:53;97479.06;;;21.08;10.57
42727;BME280;28372;56.832;60.658;2023-04-05T11:28:42;97488.63;;;21.57;11.77
42727;BME280;28372;56.832;60.658;2023-04-05T11:31:16;97485.66;;;21.42;10.63
42727;BME280;28372;56.832;60.658;2023-04-05T11:36:38;97478.28;;;20.63;10.58
42727;BME280;28372;56.832;60.658;2023-04-05T11:41:59;97472.44;;;20.74;11.12
42727;BME280;28372;56.832;60.658;2023-04-05T11:44:45;97472.44;;;20.74;10.82
42727;BME280;28372;56.832;60.658;2023-04-05T11:47:16;97471.97;;;20.53;10.91
42727;BME280;28372;56.832;60.658;2023-04-05T11:49:48;97465.72;;;20.97;11.22
42727;BME280;28372;56.832;60.658;2023-04-05T11:52:18;97470.13;;;20.95;10.98
42727;BME280;28372;56.832;60.658;2023-04-05T11:54:47;97456.44;;;20.37;10.98
42727;BME280;28372;56.832;60.658;2023-04-05T11:57:20;97468.31;;;20.69;11.53
42727;BME280;28372;56.832;60.658;2023-04-05T11:59:50;97463.25;;;20.68;11.59
42727;BME280;28372;56.832;60.658;2023-04-05T12:02:18;97451.66;;;20.73;11.62
42727;BME280;28372;56.832;60.658;2023-04-05T12:04:53;97455.44;;;20.88;11.87
42727;BME280;28372;56.832;60.658;2023-04-05T12:07:25;97458.13;;;20.79;11.89
42727;BME280;28372;56.832;60.658;2023-04-05T12:10:10;97454.66;;;21.10;12.33
42727;BME280;28372;56.832;60.658;2023-04-05T12:12:41;97460.81;;;20.92;11.82
42727;BME280;28372;56.832;60.658;2023-04-05T12:15:11;97459.31;;;20.56;12.33
42727;BME280;28372;56.832;60.658;2023-04-05T12:17:48;97460.97;;;20.53;12.47
42727;BME280;28372;56.832;60.658;2023-04-05T12:20:22;97449.06;;;20.69;12.54
42727;BME280;28372;56.832;60.658;2023-04-05T12:22:54;97452.81;;;20.63;12.50
42727;BME280;28372;56.832;60.658;2023-04-05T12:25:23;97437.06;;;20.63;12.55
42727;BME280;28372;56.832;60.658;2023-04-05T12:27:51;97432.88;;;20.71;12.76
42727;BME280;28372;56.832;60.658;2023-04-05T12:30:21;97442.41;;;20.80;12.97
42727;BME280;28372;56.832;60.658;2023-04-05T12:32:51;97436.78;;;20.83;12.85
42727;BME280;28372;56.832;60.658;2023-04-05T12:35:24;97437.88;;;20.86;13.12
42727;BME280;28372;56.832;60.658;2023-04-05T12:38:00;97424.53;;;20.75;13.06
42727;BME280;28372;56.832;60.658;2023-04-05T12:40:29;97417.63;;;20.70;13.02
42727;BME280;28372;56.832;60.658;2023-04-05T12:43:06;97418.88;;;20.79;13.12
42727;BME280;28372;56.832;60.658;2023-04-05T12:45:35;97413.44;;;20.66;13.29
42727;BME280;28372;56.832;60.658;2023-04-05T12:48:19;97412.13;;;20.70;13.57
42727;BME280;28372;56.832;60.658;2023-04-05T12:50:48;97408.94;;;20.72;13.60
42727;BME280;28372;56.832;60.658;2023-04-05T12:53:22;97398.25;;;20.74;13.69
42727;BME280;28372;56.832;60.658;2023-04-05T12:55:52;97401.38;;;20.41;13.62
42727;BME280;28372;56.832;60.658;2023-04-05T12:58:41;97403.09;;;20.48;13.91
42727;BME280;28372;56.832;60.658;2023-04-05T13:01:08;97402.91;;;20.42;13.69
42727;BME280;28372;56.832;60.658;2023-04-05T13:03:36;97399.47;;;20.29;13.86
42727;BME280;28372;56.832;60.658;2023-04-05T13:06:04;97390.97;;;20.36;13.60
42727;BME280;28372;56.832;60.658;2023-04-05T13:08:32;97386.03;;;20.53;13.40
42727;BME280;28372;56.832;60.658;2023-04-05T13:10:59;97394.28;;;20.31;13.75
42727;BME280;28372;56.832;60.658;2023-04-05T13:13:27;97386.03;;;20.31;13.71
42727;BME280;28372;56.832;60.658;2023-04-05T13:15:54;97382.47;;;20.43;13.92
42727;BME280;28372;56.832;60.658;2023-04-05T13:18:22;97382.34;;;20.47;14.13
42727;BME280;28372;56.832;60.658;2023-04-05T13:20:49;97391.16;;;20.42;13.92
42727;BME280;28372;56.832;60.658;2023-04-05T13:23:17;97386.38;;;20.33;14.28
42727;BME280;28372;56.832;60.658;2023-04-05T13:25:44;97384.25;;;20.59;13.78
42727;BME280;28372;56.832;60.658;2023-04-05T13:28:12;97386.22;;;20.59;14.06
42727;BME280;28372;56.832;60.658;2023-04-05T13:30:39;97383.34;;;20.62;14.06
42727;BME280;28372;56.832;60.658;2023-04-05T13:33:07;97383.03;;;20.60;14.01
42727;BME280;28372;56.832;60.658;2023-04-05T13:35:35;97374.94;;;20.57;13.69
42727;BME280;28372;56.832;60.658;2023-04-05T13:38:03;97384.03;;;20.53;14.06
42727;BME280;28372;56.832;60.658;2023-04-05T13:40:31;97376.97;;;20.43;14.30